Time;durP1;ratioP1;P1;durP2;ratioP2;P2;SDS_P1;SDS_P2;PMS_P1;PMS_P2;Temp;Humidity;BMP_temperature;BMP_pressure;BME280_temperature;BME280_humidity;BME280_pressure;Samples;Min_cycle;Max_cycle;Signal;HPM_P1;HPM_P2
2022/09/16 00:00:57;;;;;;;8.93;2.30;;;;;;;-145.01;100.00;64805.59;5054693;28;20025;-55
2022/09/16 00:03:22;;;;;;;8.07;2.33;;;;;;;-145.01;100.00;64805.59;5056326;28;20025;-55
2022/09/16 00:05:49;;;;;;;13.30;2.80;;;;;;;-145.01;100.00;64805.59;5054694;28;20024;-55
2022/09/16 00:08:15;;;;;;;12.25;2.60;;;;;;;-145.01;100.00;64805.59;5049814;28;20114;-56
2022/09/16 00:10:42;;;;;;;9.15;2.70;;;;;;;-145.01;100.00;64805.59;5050888;28;20025;-55
2022/09/16 00:13:07;;;;;;;8.30;2.50;;;;;;;-145.01;100.00;64805.59;5049390;28;20132;-55
2022/09/16 00:15:34;;;;;;;9.73;2.38;;;;;;;-145.01;100.00;64805.59;5049599;28;20520;-55
2022/09/16 00:17:59;;;;;;;9.82;2.70;;;;;;;-145.01;100.00;64805.59;5086430;28;20035;-52
2022/09/16 00:20:25;;;;;;;14.32;3.05;;;;;;;-145.01;100.00;64805.59;5057588;28;20021;-54
2022/09/16 00:22:50;;;;;;;9.02;2.42;;;;;;;-145.01;100.00;64805.59;5056301;28;20379;-55
2022/09/16 00:25:16;;;;;;;8.57;2.50;;;;;;;-145.01;100.00;64805.59;5055900;28;20097;-54
2022/09/16 00:27:41;;;;;;;12.18;3.00;;;;;;;-145.01;100.00;64805.59;5060897;28;20417;-55
2022/09/16 00:30:07;;;;;;;16.98;3.60;;;;;;;-145.01;100.00;64805.59;5050594;28;20020;-54
2022/09/16 00:32:32;;;;;;;7.90;2.55;;;;;;;-145.01;100.00;64805.59;5054108;28;20029;-55
2022/09/16 00:34:58;;;;;;;13.60;2.60;;;;;;;-145.01;100.00;64805.59;5056895;28;20024;-55
2022/09/16 00:37:23;;;;;;;8.48;2.60;;;;;;;-145.01;100.00;64805.59;5055635;28;20056;-54
2022/09/16 00:39:49;;;;;;;11.63;2.80;;;;;;;-145.01;100.00;64805.59;5056263;28;20415;-54
2022/09/16 00:42:15;;;;;;;10.85;3.40;;;;;;;-145.01;100.00;64805.59;5055723;28;20518;-55
2022/09/16 00:44:52;;;;;;;10.48;2.70;;;;;;;-145.01;100.00;64805.59;5054570;28;20049;-52
2022/09/16 00:47:46;;;;;;;7.68;2.90;;;;;;;-145.01;100.00;64805.59;5049894;28;20063;-54
2022/09/16 00:50:26;;;;;;;15.52;3.33;;;;;;;-145.01;100.00;64805.59;5056045;28;20454;-54
2022/09/16 00:52:51;;;;;;;9.43;2.63;;;;;;;-145.01;100.00;64805.59;5055132;28;20078;-55
2022/09/16 00:55:22;;;;;;;8.07;2.63;;;;;;;-145.01;100.00;64805.59;5048793;28;20036;-54
2022/09/16 00:57:47;;;;;;;14.80;3.10;;;;;;;-145.01;100.00;64805.59;5053630;28;20029;-55
2022/09/16 01:00:13;;;;;;;5.65;2.53;;;;;;;-145.01;100.00;64805.59;5048464;28;20361;-55
2022/09/16 01:02:40;;;;;;;10.10;2.90;;;;;;;-145.01;100.00;64805.59;5050192;28;20021;-55
2022/09/16 01:05:08;;;;;;;12.77;3.50;;;;;;;-145.01;100.00;64805.59;5052119;28;20040;-54
2022/09/16 01:07:44;;;;;;;10.55;2.63;;;;;;;-145.01;100.00;64805.59;5053215;28;20035;-54
2022/09/16 01:10:14;;;;;;;6.82;2.78;;;;;;;-145.01;100.00;64805.59;5053198;28;20072;-54
2022/09/16 01:12:41;;;;;;;14.10;3.10;;;;;;;-145.01;100.00;64805.59;5047998;28;20025;-53
2022/09/16 01:15:06;;;;;;;13.43;3.15;;;;;;;-145.01;100.00;64805.59;5053849;28;20031;-55
2022/09/16 01:17:47;;;;;;;7.50;2.70;;;;;;;-145.01;100.00;64805.59;5051251;28;20140;-55
2022/09/16 01:20:18;;;;;;;13.57;2.88;;;;;;;-145.01;100.00;64805.59;5049626;28;20040;-54
2022/09/16 01:22:44;;;;;;;14.02;3.05;;;;;;;-145.01;100.00;64805.59;5057639;28;20402;-52
2022/09/16 01:25:31;;;;;;;17.63;4.10;;;;;;;-145.01;100.00;64805.59;5057437;28;20039;-55
2022/09/16 01:28:20;;;;;;;8.63;2.95;;;;;;;-145.01;100.00;64805.59;5049352;28;20017;-54
2022/09/16 01:31:04;;;;;;;9.68;2.95;;;;;;;-145.01;100.00;64805.59;5049287;28;20053;-54
2022/09/16 01:33:49;;;;;;;8.90;3.28;;;;;;;-145.01;100.00;64805.59;5049337;28;20028;-54
2022/09/16 01:36:21;;;;;;;10.20;3.22;;;;;;;-145.01;100.00;64805.59;5034224;28;20040;-56
2022/09/16 01:39:08;;;;;;;9.77;2.90;;;;;;;-145.01;100.00;64805.59;5054540;28;20029;-53
2022/09/16 01:41:55;;;;;;;15.20;2.80;;;;;;;-145.01;100.00;64805.59;5052672;28;20040;-56
2022/09/16 01:44:49;;;;;;;6.88;2.92;;;;;;;-145.01;100.00;64805.59;5049946;28;20120;-55
2022/09/16 01:47:24;;;;;;;9.60;3.25;;;;;;;-145.01;100.00;64805.59;5045515;28;20041;-55
2022/09/16 01:50:18;;;;;;;8.63;3.13;;;;;;;-145.01;100.00;64805.59;5048696;28;20025;-53
2022/09/16 01:53:05;;;;;;;13.70;4.00;;;;;;;-145.01;100.00;64805.59;5042000;28;20037;-56
2022/09/16 01:56:03;;;;;;;8.32;3.70;;;;;;;-145.01;100.00;64805.59;5034311;28;20064;-56
2022/09/16 01:58:52;;;;;;;9.30;2.85;;;;;;;-145.01;100.00;64805.59;5068944;28;20060;-55
2022/09/16 02:01:24;;;;;;;16.42;3.30;;;;;;;-145.01;100.00;64805.59;5049056;28;20057;-55
2022/09/16 02:03:54;;;;;;;22.70;3.33;;;;;;;-145.01;100.00;64805.59;5035812;28;20092;-53
2022/09/16 02:06:20;;;;;;;;;;;;;;;-145.01;100.00;64805.59;5043432;28;20240;-51
2022/09/16 02:08:52;;;;;;;12.75;3.25;;;;;;;-145.01;100.00;64805.59;5056168;28;20316;-56
2022/09/16 02:11:17;;;;;;;8.30;3.00;;;;;;;-145.01;100.00;64805.59;5058278;28;20040;-55
2022/09/16 02:13:54;;;;;;;13.38;3.20;;;;;;;-145.01;100.00;64805.59;5047539;28;20361;-56
2022/09/16 02:16:29;;;;;;;8.80;3.20;;;;;;;-145.01;100.00;64805.59;5035957;28;20035;-55
2022/09/16 02:18:56;;;;;;;9.20;2.83;;;;;;;-145.01;100.00;64805.59;5052301;28;20029;-55
2022/09/16 02:21:23;;;;;;;8.40;3.15;;;;;;;-145.01;100.00;64805.59;5054165;28;20464;-55
2022/09/16 02:23:54;;;;;;;11.82;3.38;;;;;;;-145.01;100.00;64805.59;5056879;28;20041;-54
2022/09/16 02:26:22;;;;;;;9.95;3.17;;;;;;;-145.01;100.00;64805.59;5034380;28;20032;-56
2022/09/16 02:28:48;;;;;;;9.80;2.92;;;;;;;-145.01;100.00;64805.59;5046108;28;20051;-55
2022/09/16 02:31:13;;;;;;;15.32;2.88;;;;;;;-145.01;100.00;64805.59;5051449;28;20371;-54
2022/09/16 02:33:47;;;;;;;7.65;3.20;;;;;;;-145.01;100.00;64805.59;5056119;28;21434;-55
2022/09/16 02:36:13;;;;;;;6.45;2.97;;;;;;;-145.01;100.00;64805.59;5038921;28;20025;-54
2022/09/16 02:38:47;;;;;;;7.93;3.00;;;;;;;-145.01;100.00;64805.59;5091171;28;20422;-54
2022/09/16 02:41:13;;;;;;;7.82;3.60;;;;;;;-145.01;100.00;64805.59;5036317;28;20033;-55
2022/09/16 02:43:40;;;;;;;10.00;3.20;;;;;;;-145.01;100.00;64805.59;5052241;28;20064;-55
2022/09/16 02:46:12;;;;;;;8.00;2.67;;;;;;;-145.01;100.00;64805.59;5084518;28;20017;-55
2022/09/16 02:48:43;;;;;;;10.07;2.85;;;;;;;-145.01;100.00;64805.59;5050605;28;20075;-56
2022/09/16 02:51:32;;;;;;;8.80;3.10;;;;;;;-145.01;100.00;64805.59;5052593;28;20033;-53
2022/09/16 02:54:11;;;;;;;13.20;3.83;;;;;;;-145.01;100.00;64805.59;5056162;28;20097;-55
2022/09/16 02:56:38;;;;;;;11.35;3.60;;;;;;;-145.01;100.00;64805.59;5053602;28;20035;-56
2022/09/16 02:59:04;;;;;;;10.30;3.17;;;;;;;-145.01;100.00;64805.59;5053766;28;20139;-55
2022/09/16 03:01:32;;;;;;;10.40;3.55;;;;;;;-145.01;100.00;64805.59;5051300;28;20171;-54
2022/09/16 03:03:58;;;;;;;12.10;3.63;;;;;;;-145.01;100.00;64805.59;5056539;28;20040;-53
2022/09/16 03:06:24;;;;;;;13.20;3.42;;;;;;;-145.01;100.00;64805.59;5051637;28;20042;-53
2022/09/16 03:08:50;;;;;;;11.88;3.70;;;;;;;-145.01;100.00;64805.59;5089423;28;20430;-55
2022/09/16 03:11:34;;;;;;;11.98;3.40;;;;;;;-145.01;100.00;64805.59;5072597;28;20033;-53
2022/09/16 03:14:27;;;;;;;12.25;3.45;;;;;;;-145.01;100.00;64805.59;5063652;28;20031;-53
2022/09/16 03:17:06;;;;;;;18.27;3.65;;;;;;;-145.01;100.00;64805.59;5052619;28;20321;-53
2022/09/16 03:19:47;;;;;;;11.27;3.72;;;;;;;-145.01;100.00;64805.59;5051585;28;20115;-53
2022/09/16 03:22:22;;;;;;;14.60;3.30;;;;;;;-145.01;100.00;64805.59;5053963;28;20467;-53
2022/09/16 03:24:58;;;;;;;12.38;3.00;;;;;;;-145.01;100.00;64805.59;5058292;28;20025;-53
2022/09/16 03:27:36;;;;;;;15.32;3.80;;;;;;;-145.01;100.00;64805.59;5038275;28;20112;-53
2022/09/16 03:30:05;;;;;;;11.93;3.13;;;;;;;-145.01;100.00;64805.59;5056842;28;20039;-50
2022/09/16 03:32:37;;;;;;;13.07;3.30;;;;;;;-145.01;100.00;64805.59;5034213;28;20025;-52
2022/09/16 03:35:26;;;;;;;7.85;3.15;;;;;;;-145.01;100.00;64805.59;5066074;28;20033;-53
2022/09/16 03:37:53;;;;;;;14.63;4.28;;;;;;;-145.01;100.00;64805.59;5052302;28;20036;-52
2022/09/16 03:40:19;;;;;;;12.43;3.15;;;;;;;-145.01;100.00;64805.59;5034188;28;20475;-53
2022/09/16 03:42:44;;;;;;;9.25;3.20;;;;;;;-145.01;100.00;64805.59;5084083;28;20078;-53
2022/09/16 03:45:16;;;;;;;10.35;3.08;;;;;;;-145.01;100.00;64805.59;5033791;28;20328;-54
2022/09/16 03:47:42;;;;;;;12.05;2.78;;;;;;;-145.01;100.00;64805.59;5053166;28;20052;-54
2022/09/16 03:50:08;;;;;;;18.10;3.17;;;;;;;-145.01;100.00;64805.59;5055670;28;20051;-57
2022/09/16 03:52:33;;;;;;;9.40;2.90;;;;;;;-145.01;100.00;64805.59;5045390;28;20376;-54
2022/09/16 03:54:59;;;;;;;7.07;2.92;;;;;;;-145.01;100.00;64805.59;5058756;28;20048;-54
2022/09/16 03:57:26;;;;;;;12.52;2.55;;;;;;;-145.01;100.00;64805.59;5055949;28;20477;-54
2022/09/16 03:59:52;;;;;;;11.70;2.80;;;;;;;-145.01;100.00;64805.59;5051224;28;20436;-56
2022/09/16 04:02:17;;;;;;;7.10;2.80;;;;;;;-145.01;100.00;64805.59;5062425;28;20095;-53
2022/09/16 04:04:43;;;;;;;8.75;2.85;;;;;;;-145.01;100.00;64805.59;5053253;28;20071;-53
2022/09/16 04:07:08;;;;;;;8.93;2.50;;;;;;;-145.01;100.00;64805.59;5056572;28;20028;-54
2022/09/16 04:09:36;;;;;;;7.63;2.60;;;;;;;-145.01;100.00;64805.59;5063434;28;20090;-52
2022/09/16 04:12:02;;;;;;;14.88;3.03;;;;;;;-145.01;100.00;64805.59;5058319;28;20029;-54
2022/09/16 04:14:27;;;;;;;5.22;2.33;;;;;;;-145.01;100.00;64805.59;5050889;28;20025;-52
2022/09/16 04:16:53;;;;;;;10.27;2.47;;;;;;;-145.01;100.00;64805.59;5050993;28;20036;-53
2022/09/16 04:19:19;;;;;;;7.40;2.60;;;;;;;-145.01;100.00;64805.59;5054434;28;20441;-55
2022/09/16 04:21:44;;;;;;;10.10;2.65;;;;;;;-145.01;100.00;64805.59;5049682;28;20068;-56
2022/09/16 04:24:09;;;;;;;8.02;2.58;;;;;;;-145.01;100.00;64805.59;5056750;28;20025;-54
2022/09/16 04:26:35;;;;;;;13.65;3.53;;;;;;;-145.01;100.00;64805.59;5051741;28;20029;-55
2022/09/16 04:29:00;;;;;;;12.85;2.67;;;;;;;-145.01;100.00;64805.59;5056452;28;20039;-55
2022/09/16 04:31:26;;;;;;;6.15;2.10;;;;;;;-145.01;100.00;64805.59;5034401;28;20040;-53
2022/09/16 04:33:51;;;;;;;10.77;2.60;;;;;;;-145.01;100.00;64805.59;5048707;28;20032;-54
2022/09/16 04:36:18;;;;;;;9.95;2.35;;;;;;;-145.01;100.00;64805.59;5049529;28;20036;-54
2022/09/16 04:38:44;;;;;;;8.38;2.22;;;;;;;-145.01;100.00;64805.59;5053347;28;20078;-56
2022/09/16 04:41:19;;;;;;;5.40;2.60;;;;;;;-145.01;100.00;64805.59;5054003;28;20058;-52
2022/09/16 04:43:45;;;;;;;13.75;2.67;;;;;;;-145.01;100.00;64805.59;5053693;28;20060;-53
2022/09/16 04:46:12;;;;;;;11.70;2.70;;;;;;;-145.01;100.00;64805.59;5050811;28;20087;-53
2022/09/16 04:48:37;;;;;;;10.95;3.10;;;;;;;-145.01;100.00;64805.59;5053876;28;20024;-54
2022/09/16 04:51:05;;;;;;;9.52;2.78;;;;;;;-145.01;100.00;64805.59;5054446;28;20078;-55
2022/09/16 04:53:30;;;;;;;15.20;2.95;;;;;;;-145.01;100.00;64805.59;5049295;28;20143;-54
2022/09/16 04:56:07;;;;;;;10.18;2.55;;;;;;;-145.01;100.00;64805.59;5055059;28;20103;-55
2022/09/16 04:58:32;;;;;;;11.68;2.80;;;;;;;-145.01;100.00;64805.59;5056284;28;20028;-54
2022/09/16 05:01:11;;;;;;;10.75;2.80;;;;;;;-145.01;100.00;64805.59;5056801;28;20029;-55
2022/09/16 05:03:40;;;;;;;13.13;2.75;;;;;;;-145.01;100.00;64805.59;5054567;28;20388;-55
2022/09/16 05:06:10;;;;;;;6.38;2.55;;;;;;;-145.01;100.00;64805.59;5049305;28;20135;-53
2022/09/16 05:08:36;;;;;;;9.25;2.50;;;;;;;-145.01;100.00;64805.59;5054221;28;20078;-56
2022/09/16 05:11:03;;;;;;;10.68;3.40;;;;;;;-145.01;100.00;64805.59;5051864;28;20036;-53
2022/09/16 05:13:28;;;;;;;10.68;2.80;;;;;;;-145.01;100.00;64805.59;5054403;28;20033;-54
2022/09/16 05:15:54;;;;;;;9.85;2.80;;;;;;;-145.01;100.00;64805.59;5053268;28;20025;-53
2022/09/16 05:18:19;;;;;;;5.25;2.33;;;;;;;-145.01;100.00;64805.59;5053880;28;20036;-54
2022/09/16 05:20:45;;;;;;;12.23;3.65;;;;;;;-145.01;100.00;64805.59;5055859;28;20041;-54
2022/09/16 05:23:10;;;;;;;20.30;3.15;;;;;;;-145.01;100.00;64805.59;5053607;28;20051;-54
2022/09/16 05:25:36;;;;;;;12.00;3.17;;;;;;;-145.01;100.00;64805.59;5058942;28;20025;-53
2022/09/16 05:28:01;;;;;;;10.73;3.10;;;;;;;-145.01;100.00;64805.59;5063036;28;20067;-53
2022/09/16 05:30:26;;;;;;;12.43;2.83;;;;;;;-145.01;100.00;64805.59;5058515;28;20057;-56
2022/09/16 05:32:53;;;;;;;12.10;3.28;;;;;;;-145.01;100.00;64805.59;5060138;28;20542;-53
2022/09/16 05:35:18;;;;;;;15.70;3.38;;;;;;;-145.01;100.00;64805.59;5061572;28;20025;-51
2022/09/16 05:37:44;;;;;;;10.88;3.20;;;;;;;-145.01;100.00;64805.59;5053717;28;20510;-54
2022/09/16 05:40:09;;;;;;;13.00;2.80;;;;;;;-145.01;100.00;64805.59;5049827;28;20383;-53
2022/09/16 05:42:35;;;;;;;19.95;3.53;;;;;;;-145.01;100.00;64805.59;5049046;28;20471;-54
2022/09/16 05:45:00;;;;;;;9.35;2.90;;;;;;;-145.01;100.00;64805.59;5037515;28;20020;-53
2022/09/16 05:47:26;;;;;;;9.65;2.65;;;;;;;-145.01;100.00;64805.59;5049644;28;20132;-55
2022/09/16 05:49:53;;;;;;;12.02;2.58;;;;;;;-145.01;100.00;64805.59;5053795;28;20040;-54
2022/09/16 05:52:19;;;;;;;16.25;2.70;;;;;;;-145.01;100.00;64805.59;5053333;28;20522;-56
2022/09/16 05:54:44;;;;;;;11.15;2.53;;;;;;;-145.01;100.00;64805.59;5049364;28;20111;-54
2022/09/16 05:57:10;;;;;;;9.30;2.22;;;;;;;-145.01;100.00;64805.59;5054113;28;20523;-53
2022/09/16 05:59:35;;;;;;;15.52;2.50;;;;;;;-145.01;100.00;64805.59;5065577;28;20109;-56
2022/09/16 06:02:01;;;;;;;10.50;2.53;;;;;;;-145.01;100.00;64805.59;5063049;28;20040;-54
2022/09/16 06:04:26;;;;;;;9.00;2.60;;;;;;;-145.01;100.00;64805.59;5052863;28;20052;-55
2022/09/16 06:06:51;;;;;;;14.85;2.80;;;;;;;-145.01;100.00;64805.59;5054620;28;20021;-55
2022/09/16 06:09:19;;;;;;;7.05;2.00;;;;;;;-145.01;100.00;64805.59;5060076;28;20020;-56
2022/09/16 06:11:46;;;;;;;9.85;2.45;;;;;;;-145.01;100.00;64805.59;5063587;28;20033;-55
2022/09/16 06:14:12;;;;;;;8.00;2.42;;;;;;;-145.01;100.00;64805.59;5054726;28;20124;-55
2022/09/16 06:16:37;;;;;;;6.97;2.00;;;;;;;-145.01;100.00;64805.59;5057699;28;20264;-55
2022/09/16 06:19:05;;;;;;;9.45;2.40;;;;;;;-145.01;100.00;64805.59;5057536;28;20020;-55
2022/09/16 06:21:30;;;;;;;8.80;2.38;;;;;;;-145.01;100.00;64805.59;5053052;28;20494;-57
2022/09/16 06:23:56;;;;;;;6.47;2.05;;;;;;;-145.01;100.00;64805.59;5053077;28;20037;-56
2022/09/16 06:26:23;;;;;;;6.97;2.10;;;;;;;-145.01;100.00;64805.59;5053196;28;20021;-56
2022/09/16 06:28:48;;;;;;;9.55;2.55;;;;;;;-145.01;100.00;64805.59;5059641;28;20025;-55
2022/09/16 06:31:16;;;;;;;11.68;2.65;;;;;;;-145.01;100.00;64805.59;5051598;28;20037;-55
2022/09/16 06:33:42;;;;;;;7.32;2.28;;;;;;;-145.01;100.00;64805.59;5052690;28;20025;-54
2022/09/16 06:36:18;;;;;;;9.05;2.38;;;;;;;-145.01;100.00;64805.59;5059587;28;20537;-55
2022/09/16 06:38:44;;;;;;;9.30;2.42;;;;;;;-145.01;100.00;64805.59;5061332;28;20474;-55
2022/09/16 06:41:10;;;;;;;11.52;2.20;;;;;;;-145.01;100.00;64805.59;5056823;28;20029;-55
2022/09/16 06:43:36;;;;;;;11.52;2.60;;;;;;;-145.01;100.00;64805.59;5061764;28;20027;-54
2022/09/16 06:46:04;;;;;;;9.90;2.38;;;;;;;-145.01;100.00;64805.59;5052800;28;20383;-54
2022/09/16 06:48:32;;;;;;;12.70;2.20;;;;;;;-145.01;100.00;64805.59;5052848;28;20024;-55
2022/09/16 06:51:02;;;;;;;10.65;2.33;;;;;;;-145.01;100.00;64805.59;5056871;28;20355;-55
2022/09/16 06:53:28;;;;;;;10.70;2.40;;;;;;;-145.01;100.00;64805.59;5056631;28;20086;-54
2022/09/16 06:55:53;;;;;;;6.70;2.10;;;;;;;-145.01;100.00;64805.59;5061366;28;20474;-55
2022/09/16 06:58:18;;;;;;;10.13;2.15;;;;;;;-145.01;100.00;64805.59;5058160;28;20036;-54
2022/09/16 07:00:44;;;;;;;6.88;2.15;;;;;;;-145.01;100.00;64805.59;5090041;28;20059;-54
2022/09/16 07:03:09;;;;;;;5.57;1.98;;;;;;;-145.01;100.00;64805.59;5054287;28;20372;-55
2022/09/16 07:05:35;;;;;;;9.48;2.38;;;;;;;-145.01;100.00;64805.59;5055048;28;20415;-55
2022/09/16 07:08:00;;;;;;;10.55;2.75;;;;;;;-145.01;100.00;64805.59;5060852;28;20025;-54
2022/09/16 07:10:26;;;;;;;9.57;2.35;;;;;;;-145.01;100.00;64805.59;5059199;28;20481;-54
2022/09/16 07:12:52;;;;;;;11.45;2.80;;;;;;;-145.01;100.00;64805.59;5053933;28;20033;-53
2022/09/16 07:15:17;;;;;;;7.55;2.38;;;;;;;-145.01;100.00;64805.59;5055323;28;20079;-54
2022/09/16 07:17:42;;;;;;;8.73;2.30;;;;;;;-145.01;100.00;64805.59;5055250;28;20028;-52
2022/09/16 07:20:08;;;;;;;13.18;2.35;;;;;;;-145.01;100.00;64805.59;5057289;28;20422;-53
2022/09/16 07:22:34;;;;;;;10.00;2.47;;;;;;;-145.01;100.00;64805.59;5052657;28;20040;-52
2022/09/16 07:24:59;;;;;;;5.97;2.42;;;;;;;-145.01;100.00;64805.59;5057295;28;20028;-53
2022/09/16 07:27:24;;;;;;;6.78;1.95;;;;;;;-145.01;100.00;64805.59;5060316;28;20032;-54
2022/09/16 07:29:50;;;;;;;7.80;2.03;;;;;;;-145.01;100.00;64805.59;5050666;28;20064;-55
2022/09/16 07:32:18;;;;;;;7.22;1.95;;;;;;;-145.01;100.00;64805.59;5055505;28;20024;-55
2022/09/16 07:34:43;;;;;;;6.10;2.00;;;;;;;-145.01;100.00;64805.59;5056389;28;20106;-54
2022/09/16 07:37:09;;;;;;;4.00;1.73;;;;;;;-145.01;100.00;64805.59;5052334;28;20464;-53
2022/09/16 07:39:34;;;;;;;4.95;1.90;;;;;;;-145.01;100.00;64805.59;5059848;28;20306;-54
2022/09/16 07:42:02;;;;;;;3.95;1.80;;;;;;;-145.01;100.00;64805.59;5060561;28;20020;-54
2022/09/16 07:44:28;;;;;;;10.30;2.10;;;;;;;-145.01;100.00;64805.59;5052904;28;20039;-55
2022/09/16 07:46:53;;;;;;;13.32;2.00;;;;;;;-145.01;100.00;64805.59;5055383;28;20100;-54
2022/09/16 07:49:19;;;;;;;6.18;1.75;;;;;;;-145.01;100.00;64805.59;5049249;28;20386;-55
2022/09/16 07:51:44;;;;;;;4.85;1.75;;;;;;;-145.01;100.00;64805.59;5058163;28;20032;-54
2022/09/16 07:54:12;;;;;;;6.78;1.80;;;;;;;-145.01;100.00;64805.59;5051407;28;20083;-54
2022/09/16 07:56:38;;;;;;;12.27;2.28;;;;;;;-145.01;100.00;64805.59;5052515;28;20033;-54
2022/09/16 07:59:05;;;;;;;6.85;1.92;;;;;;;-145.01;100.00;64805.59;5057439;28;20035;-55
2022/09/16 08:01:31;;;;;;;5.97;1.58;;;;;;;-145.01;100.00;64805.59;5056088;28;20147;-55
2022/09/16 08:03:57;;;;;;;8.38;1.92;;;;;;;-145.01;100.00;64805.59;5050372;28;20052;-54
2022/09/16 08:06:24;;;;;;;7.53;1.52;;;;;;;-145.01;100.00;64805.59;5051339;28;20556;-53
2022/09/16 08:08:51;;;;;;;4.13;1.58;;;;;;;-145.01;100.00;64805.59;5051088;28;20040;-55
2022/09/16 08:11:16;;;;;;;10.57;1.85;;;;;;;-145.01;100.00;64805.59;5051126;28;20095;-54
2022/09/16 08:13:42;;;;;;;5.82;1.70;;;;;;;-145.01;100.00;64805.59;5050614;28;20522;-54
2022/09/16 08:16:10;;;;;;;6.80;1.90;;;;;;;-145.01;100.00;64805.59;5056399;28;20067;-54
2022/09/16 08:18:36;;;;;;;5.45;1.70;;;;;;;-145.01;100.00;64805.59;5053601;28;20130;-54
2022/09/16 08:21:10;;;;;;;9.00;1.70;;;;;;;-145.01;100.00;64805.59;5054874;28;20479;-54
2022/09/16 08:23:36;;;;;;;5.93;1.55;;;;;;;-145.01;100.00;64805.59;5053496;28;20108;-54
2022/09/16 08:26:02;;;;;;;7.07;1.73;;;;;;;-145.01;100.00;64805.59;5050479;28;20104;-55
2022/09/16 08:28:27;;;;;;;4.35;1.55;;;;;;;-145.01;100.00;64805.59;5053490;28;20059;-55
2022/09/16 08:30:53;;;;;;;3.85;1.40;;;;;;;-145.01;100.00;64805.59;5056310;28;20012;-53
2022/09/16 08:33:20;;;;;;;5.63;1.50;;;;;;;-145.01;100.00;64805.59;5060430;28;20017;-55
2022/09/16 08:36:16;;;;;;;5.07;1.40;;;;;;;-145.01;100.00;64805.59;5055978;28;20028;-55
2022/09/16 08:38:42;;;;;;;5.25;1.38;;;;;;;-145.01;100.00;64805.59;5058206;28;20107;-54
2022/09/16 08:41:32;;;;;;;5.25;1.75;;;;;;;-145.01;100.00;64805.59;5050224;28;20037;-54
2022/09/16 08:44:23;;;;;;;5.25;1.60;;;;;;;-145.01;100.00;64805.59;5050416;28;20028;-54
2022/09/16 08:46:57;;;;;;;11.02;1.40;;;;;;;-145.01;100.00;64805.59;5051016;28;20028;-54
2022/09/16 08:49:42;;;;;;;6.05;1.80;;;;;;;-145.01;100.00;64805.59;5055116;28;20017;-54
2022/09/16 08:52:28;;;;;;;6.07;1.80;;;;;;;-145.01;100.00;64805.59;5049400;28;20151;-54
2022/09/16 08:54:56;;;;;;;6.57;2.13;;;;;;;-145.01;100.00;64805.59;5060349;28;20074;-54
2022/09/16 08:57:25;;;;;;;4.13;1.60;;;;;;;-145.01;100.00;64805.59;5038560;28;20022;-55
2022/09/16 08:59:53;;;;;;;4.65;2.05;;;;;;;-145.01;100.00;64805.59;5053417;28;20033;-55
2022/09/16 09:02:41;;;;;;;6.47;1.65;;;;;;;-145.01;100.00;64805.59;5035346;28;20463;-54
2022/09/16 09:05:18;;;;;;;5.45;1.63;;;;;;;-145.01;100.00;64805.59;5053687;28;20048;-55
2022/09/16 09:08:14;;;;;;;3.65;1.50;;;;;;;-145.01;100.00;64805.59;5051772;28;20451;-54
2022/09/16 09:10:42;;;;;;;2.97;1.35;;;;;;;-145.01;100.00;64805.59;5054234;28;20406;-55
2022/09/16 09:13:26;;;;;;;3.55;1.38;;;;;;;-145.01;100.00;64805.59;5055416;28;20028;-55
2022/09/16 09:16:03;;;;;;;5.65;1.42;;;;;;;-145.01;100.00;64805.59;5048926;28;20133;-54
2022/09/16 09:18:47;;;;;;;6.90;1.92;;;;;;;-145.01;100.00;64805.59;5055469;28;20025;-54
2022/09/16 09:21:18;;;;;;;4.32;1.48;;;;;;;-145.01;100.00;64805.59;5055136;28;20040;-54
2022/09/16 09:24:08;;;;;;;1.65;1.10;;;;;;;-145.01;100.00;64805.59;5056526;28;20033;-54
2022/09/16 09:26:41;;;;;;;4.45;1.27;;;;;;;-145.01;100.00;64805.59;5050206;28;20095;-53
2022/09/16 09:29:26;;;;;;;3.45;1.40;;;;;;;-145.01;100.00;64805.59;5081706;28;20021;-56
2022/09/16 09:32:20;;;;;;;5.55;1.33;;;;;;;-145.01;100.00;64805.59;5053774;28;20029;-54
2022/09/16 09:34:51;;;;;;;3.65;1.30;;;;;;;-145.01;100.00;64805.59;5060453;28;20029;-54
2022/09/16 09:37:40;;;;;;;3.30;1.25;;;;;;;-145.01;100.00;64805.59;5052912;28;20029;-53
2022/09/16 09:40:13;;;;;;;5.80;1.50;;;;;;;-145.01;100.00;64805.59;5054338;28;20475;-50
2022/09/16 09:42:50;;;;;;;3.78;1.30;;;;;;;-145.01;100.00;64805.59;5048150;28;20057;-53
2022/09/16 09:45:28;;;;;;;4.22;1.40;;;;;;;-145.01;100.00;64805.59;5049810;28;20032;-55
2022/09/16 09:48:03;;;;;;;6.05;1.85;;;;;;;-145.01;100.00;64805.59;5049898;28;20029;-55
2022/09/16 09:50:34;;;;;;;5.05;1.60;;;;;;;-145.01;100.00;64805.59;5048417;28;20028;-55
2022/09/16 09:53:03;;;;;;;3.30;1.30;;;;;;;-145.01;100.00;64805.59;5048592;28;20498;-55
2022/09/16 09:55:31;;;;;;;2.47;1.30;;;;;;;-145.01;100.00;64805.59;5053336;28;20028;-56
2022/09/16 09:58:33;;;;;;;7.05;1.55;;;;;;;-145.01;100.00;64805.59;5058208;28;20379;-55
2022/09/16 10:01:00;;;;;;;3.50;1.33;;;;;;;-145.01;100.00;64805.59;5054789;28;20043;-55
2022/09/16 10:03:26;;;;;;;4.55;1.20;;;;;;;-145.01;100.00;64805.59;5055752;28;20122;-56
2022/09/16 10:05:52;;;;;;;3.75;1.33;;;;;;;-145.01;100.00;64805.59;5053862;28;20029;-55
2022/09/16 10:08:43;;;;;;;4.38;1.50;;;;;;;-145.01;100.00;64805.59;5052733;28;20098;-54
2022/09/16 10:11:19;;;;;;;4.10;1.40;;;;;;;-145.01;100.00;64805.59;5053406;28;20095;-54
2022/09/16 10:13:50;;;;;;;4.25;1.60;;;;;;;-145.01;100.00;64805.59;5060119;28;20071;-56
2022/09/16 10:16:19;;;;;;;5.70;1.50;;;;;;;-145.01;100.00;64805.59;5094055;28;20024;-53
2022/09/16 10:18:45;;;;;;;7.50;1.40;;;;;;;-145.01;100.00;64805.59;5047927;28;20032;-54
2022/09/16 10:21:14;;;;;;;4.00;1.33;;;;;;;-145.01;100.00;64805.59;5053662;28;20071;-54
2022/09/16 10:23:39;;;;;;;5.37;1.60;;;;;;;-145.01;100.00;64805.59;5054995;28;20033;-53
2022/09/16 10:26:27;;;;;;;4.90;1.50;;;;;;;-145.01;100.00;64805.59;5053310;28;20787;-54
2022/09/16 10:29:13;;;;;;;3.83;1.67;;;;;;;-145.01;100.00;64805.59;5050312;28;20055;-54
2022/09/16 10:31:39;;;;;;;4.38;1.20;;;;;;;-145.01;100.00;64805.59;5055998;28;20090;-54
2022/09/16 10:34:11;;;;;;;4.35;1.33;;;;;;;-145.01;100.00;64805.59;5048909;28;20037;-53
2022/09/16 10:36:37;;;;;;;6.85;1.85;;;;;;;-145.01;100.00;64805.59;5054909;28;20058;-55
2022/09/16 10:39:02;;;;;;;4.78;1.40;;;;;;;-145.01;100.00;64805.59;5050227;28;20021;-54
2022/09/16 10:41:40;;;;;;;5.75;1.50;;;;;;;-145.01;100.00;64805.59;5050529;28;20054;-54
2022/09/16 10:44:15;;;;;;;6.13;1.65;;;;;;;-145.01;100.00;64805.59;5066049;28;20112;-52
2022/09/16 10:47:20;;;;;;;4.10;1.20;;;;;;;-145.01;100.00;64805.59;5056550;28;20091;-54
2022/09/16 10:49:53;;;;;;;3.00;1.35;;;;;;;-145.01;100.00;64805.59;5051019;28;20037;-54
2022/09/16 10:52:27;;;;;;;5.25;1.30;;;;;;;-145.01;100.00;64805.59;5052178;28;20021;-54
2022/09/16 10:54:55;;;;;;;3.42;1.33;;;;;;;-145.01;100.00;64805.59;5060049;28;20032;-56
2022/09/16 10:57:27;;;;;;;3.22;1.17;;;;;;;-145.01;100.00;64805.59;5060385;28;20032;-54
2022/09/16 11:00:13;;;;;;;6.10;1.58;;;;;;;-145.01;100.00;64805.59;5052514;28;20057;-53
2022/09/16 11:02:56;;;;;;;1.77;1.15;;;;;;;-145.01;100.00;64805.59;5055712;28;20478;-55
2022/09/16 11:05:49;;;;;;;5.60;1.50;;;;;;;-145.01;100.00;64805.59;5052030;28;20103;-57
2022/09/16 11:08:20;;;;;;;4.57;1.42;;;;;;;-145.01;100.00;64805.59;5063834;28;20468;-54
2022/09/16 11:11:22;;;;;;;4.88;1.48;;;;;;;-145.01;100.00;64805.59;5055916;28;20032;-54
2022/09/16 11:13:50;;;;;;;5.43;1.95;;;;;;;-145.01;100.00;64805.59;5084229;28;20043;-54
2022/09/16 11:16:28;;;;;;;8.38;1.60;;;;;;;-145.01;100.00;64805.59;5053789;28;20025;-55
2022/09/16 11:19:03;;;;;;;2.38;1.27;;;;;;;-145.01;100.00;64805.59;5051490;28;20025;-54
2022/09/16 11:21:31;;;;;;;5.32;1.50;;;;;;;-145.01;100.00;64805.59;5052083;28;20220;-52
2022/09/16 11:24:24;;;;;;;1.33;1.10;;;;;;;-145.01;100.00;64805.59;5050732;28;20029;-53